createdAt,value
2022-12-19T00:01:38.407Z,65.92
2022-12-19T00:04:09.001Z,65.88
2022-12-19T00:06:37.473Z,65.95
2022-12-19T00:09:05.614Z,66.63
2022-12-19T00:11:36.324Z,67.01
2022-12-19T00:14:03.269Z,66.46
2022-12-19T00:16:30.236Z,66.66
2022-12-19T00:19:00.045Z,66.94
2022-12-19T00:21:29.988Z,66.83
2022-12-19T00:23:56.954Z,67.03
2022-12-19T00:26:32.762Z,67.84
2022-12-19T00:29:09.851Z,67.92
2022-12-19T00:31:39.563Z,67.81
2022-12-19T00:34:06.613Z,67.29
2022-12-19T00:36:34.002Z,67.87
2022-12-19T00:39:02.184Z,67.80
2022-12-19T00:41:36.361Z,67.43
2022-12-19T00:44:05.365Z,68.05
2022-12-19T00:46:35.599Z,67.34
2022-12-19T00:49:02.929Z,67.67
2022-12-19T00:51:32.753Z,67.86
2022-12-19T00:53:59.626Z,68.05
2022-12-19T00:56:37.157Z,67.93
2022-12-19T00:59:06.744Z,68.19
2022-12-19T01:01:36.773Z,67.82
2022-12-19T01:06:52.847Z,67.32
2022-12-19T01:09:21.780Z,67.87
2022-12-19T01:12:08.442Z,67.67
2022-12-19T01:14:35.349Z,67.67
2022-12-19T01:17:02.199Z,68.02
2022-12-19T01:19:29.005Z,67.47
2022-12-19T01:21:55.813Z,68.05
2022-12-19T01:24:22.737Z,68.20
2022-12-19T01:26:49.624Z,67.78
2022-12-19T01:29:16.544Z,68.24
2022-12-19T01:31:43.451Z,68.10
2022-12-19T01:34:10.339Z,68.43
2022-12-19T01:36:39.878Z,68.16
2022-12-19T01:39:07.651Z,68.06
2022-12-19T01:41:34.632Z,68.46
2022-12-19T01:44:09.154Z,68.08
2022-12-19T01:46:41.979Z,68.51
2022-12-19T01:49:29.090Z,68.46
2022-12-19T01:51:59.315Z,68.69
2022-12-19T01:54:33.565Z,68.62
2022-12-19T01:57:02.092Z,68.70
2022-12-19T01:59:35.040Z,69.01
2022-12-19T02:02:15.343Z,68.58
2022-12-19T02:04:46.022Z,69.38
2022-12-19T02:07:16.095Z,68.88
2022-12-19T02:09:50.572Z,68.41
2022-12-19T02:12:28.223Z,68.85
2022-12-19T02:14:56.046Z,68.90
2022-12-19T02:17:42.948Z,68.27
2022-12-19T02:20:27.428Z,68.95
2022-12-19T02:23:15.827Z,69.11
2022-12-19T02:26:06.840Z,68.80
2022-12-19T02:29:09.300Z,69.12
2022-12-19T02:31:43.914Z,68.91
2022-12-19T02:34:19.879Z,68.76
2022-12-19T02:37:12.349Z,69.23
2022-12-19T02:40:03.283Z,69.07
2022-12-19T02:42:33.783Z,69.47
2022-12-19T02:45:04.387Z,70.26
2022-12-19T02:47:32.498Z,69.98
2022-12-19T02:50:00.948Z,69.41
2022-12-19T02:52:44.791Z,68.98
2022-12-19T02:55:14.747Z,69.62
2022-12-19T02:57:45.292Z,69.15
2022-12-19T03:00:21.873Z,68.97
2022-12-19T03:03:07.560Z,69.16
2022-12-19T03:05:34.374Z,68.81
2022-12-19T03:08:08.112Z,69.05
2022-12-19T03:10:42.930Z,69.34
2022-12-19T03:13:26.536Z,69.05
2022-12-19T03:15:53.602Z,68.55
2022-12-19T03:18:21.062Z,68.51
2022-12-19T03:21:04.469Z,68.71
2022-12-19T03:23:31.666Z,68.63
2022-12-19T03:26:02.951Z,68.14
2022-12-19T03:28:42.271Z,68.54
2022-12-19T03:31:10.103Z,68.27
2022-12-19T03:33:38.653Z,68.35
2022-12-19T03:36:08.647Z,67.83
2022-12-19T03:38:36.312Z,67.85
2022-12-19T03:41:04.494Z,67.89
2022-12-19T03:43:32.599Z,68.17
2022-12-19T03:46:14.155Z,68.14
2022-12-19T03:48:40.984Z,68.03
2022-12-19T03:51:28.802Z,67.65
2022-12-19T03:54:00.423Z,67.79
2022-12-19T03:56:39.132Z,67.86
2022-12-19T03:59:21.519Z,67.77
2022-12-19T04:01:49.930Z,67.85
2022-12-19T04:04:17.408Z,68.12
2022-12-19T04:06:44.447Z,68.69
2022-12-19T04:09:11.937Z,68.07
2022-12-19T04:11:50.005Z,68.66
2022-12-19T04:14:26.919Z,68.57
2022-12-19T04:17:19.894Z,68.45
2022-12-19T04:20:04.153Z,68.74
2022-12-19T04:22:37.229Z,68.84
2022-12-19T04:25:08.174Z,68.54
2022-12-19T04:27:36.227Z,68.52
2022-12-19T04:30:03.930Z,68.62
2022-12-19T04:32:33.456Z,68.82
2022-12-19T04:35:00.196Z,68.40
2022-12-19T04:37:27.212Z,68.37
2022-12-19T04:39:53.995Z,67.75
2022-12-19T04:42:21.076Z,67.21
2022-12-19T04:44:47.844Z,67.29
2022-12-19T04:47:14.651Z,67.38
2022-12-19T04:49:41.438Z,67.28
2022-12-19T04:52:08.501Z,67.06
2022-12-19T04:54:35.250Z,67.31
2022-12-19T04:57:02.013Z,67.55
2022-12-19T04:59:28.899Z,67.52
2022-12-19T05:01:55.879Z,67.87
2022-12-19T05:04:22.744Z,67.65
2022-12-19T05:06:49.476Z,67.72
2022-12-19T05:09:16.333Z,68.15
2022-12-19T05:11:43.110Z,67.36
2022-12-19T05:14:10.021Z,67.30
2022-12-19T05:16:36.772Z,67.57
2022-12-19T05:19:03.621Z,67.21
2022-12-19T05:21:30.434Z,67.38
2022-12-19T05:23:57.162Z,67.32
2022-12-19T05:26:24.344Z,66.92
2022-12-19T05:28:51.202Z,67.16
2022-12-19T05:31:20.168Z,66.95
2022-12-19T05:33:47.963Z,67.42
2022-12-19T05:36:15.973Z,67.14
2022-12-19T05:38:43.076Z,67.03
2022-12-19T05:41:20.190Z,67.21
2022-12-19T05:43:52.047Z,67.02
2022-12-19T05:46:19.629Z,67.09
2022-12-19T05:48:46.864Z,66.75
2022-12-19T05:51:13.988Z,67.05
2022-12-19T05:53:41.434Z,66.82
2022-12-19T05:56:14.508Z,66.81
2022-12-19T05:58:43.335Z,67.19
2022-12-19T06:01:14.476Z,67.05
2022-12-19T06:03:41.326Z,67.19
2022-12-19T06:06:13.315Z,67.27
2022-12-19T06:08:40.323Z,67.53
2022-12-19T06:11:08.744Z,67.31
2022-12-19T06:13:36.325Z,67.61
2022-12-19T06:16:05.048Z,67.45
2022-12-19T06:18:32.317Z,66.69
2022-12-19T06:21:04.570Z,66.84
2022-12-19T06:23:33.221Z,66.15
2022-12-19T06:26:01.394Z,66.11
2022-12-19T06:28:30.406Z,66.17
2022-12-19T06:30:57.446Z,66.37
2022-12-19T06:33:24.615Z,66.81
2022-12-19T06:36:01.641Z,66.29
2022-12-19T06:38:29.119Z,66.01
2022-12-19T06:41:14.674Z,66.10
2022-12-19T06:43:41.464Z,65.62
2022-12-19T06:46:09.112Z,65.71
2022-12-19T06:48:36.051Z,65.46
2022-12-19T06:51:02.868Z,65.81
2022-12-19T06:53:30.160Z,65.58
2022-12-19T06:55:58.394Z,66.15
2022-12-19T06:58:25.622Z,65.92
2022-12-19T07:00:53.241Z,65.70
2022-12-19T07:03:23.460Z,66.10
2022-12-19T07:05:50.436Z,65.63
2022-12-19T07:08:17.219Z,65.69
2022-12-19T07:10:43.995Z,65.68
2022-12-19T07:13:10.780Z,66.19
2022-12-19T07:15:38.029Z,66.29
2022-12-19T07:18:07.203Z,65.63
2022-12-19T07:20:34.740Z,66.22
2022-12-19T07:23:02.234Z,65.87
2022-12-19T07:25:28.997Z,65.99
2022-12-19T07:27:56.112Z,65.73
2022-12-19T07:30:22.889Z,65.59
2022-12-19T07:32:49.671Z,66.28
2022-12-19T07:35:16.753Z,65.38
2022-12-19T07:37:43.487Z,65.16
2022-12-19T07:40:11.275Z,66.07
2022-12-19T07:42:38.946Z,65.78
2022-12-19T07:45:06.269Z,65.37
2022-12-19T07:47:33.805Z,66.20
2022-12-19T07:50:01.505Z,65.74
2022-12-19T07:52:28.362Z,65.65
2022-12-19T07:54:55.290Z,65.73
2022-12-19T07:57:22.121Z,65.21
2022-12-19T07:59:48.893Z,65.31
2022-12-19T08:02:15.716Z,65.74
2022-12-19T08:04:42.624Z,65.73
2022-12-19T08:07:09.386Z,65.32
2022-12-19T08:09:36.164Z,65.94
2022-12-19T08:12:03.041Z,65.77
2022-12-19T08:14:29.923Z,65.86
2022-12-19T08:17:19.669Z,65.53
2022-12-19T08:19:43.374Z,65.90
2022-12-19T08:22:10.162Z,65.26
2022-12-19T08:24:37.749Z,65.82
2022-12-19T08:27:04.539Z,65.66
2022-12-19T08:29:31.367Z,66.44
2022-12-19T08:31:58.151Z,66.60
2022-12-19T08:34:24.938Z,66.19
2022-12-19T08:36:51.755Z,66.56
2022-12-19T08:39:18.610Z,66.53
2022-12-19T08:41:45.397Z,66.67
2022-12-19T08:44:13.136Z,66.51
2022-12-19T08:46:43.555Z,67.96
2022-12-19T08:49:13.377Z,68.24
2022-12-19T08:51:40.175Z,68.50
2022-12-19T08:54:07.949Z,68.64
2022-12-19T08:56:41.959Z,69.29
2022-12-19T08:59:13.944Z,70.09
2022-12-19T09:01:45.178Z,69.81
2022-12-19T09:05:58.010Z,70.49
2022-12-19T09:06:58.847Z,70.80
2022-12-19T09:09:25.648Z,70.62
2022-12-19T09:11:52.371Z,70.58
2022-12-19T09:14:20.967Z,71.59
2022-12-19T09:16:48.591Z,71.14
2022-12-19T09:19:16.577Z,70.49
2022-12-19T09:21:43.561Z,70.25
2022-12-19T09:24:10.797Z,70.54
2022-12-19T09:26:39.489Z,69.81
2022-12-19T09:29:11.017Z,69.93
2022-12-19T09:31:50.020Z,70.53
2022-12-19T09:34:24.817Z,69.86
2022-12-19T09:37:00.006Z,70.07
2022-12-19T09:39:26.948Z,69.07
2022-12-19T09:42:23.228Z,68.67
2022-12-19T09:44:59.703Z,69.35
2022-12-19T09:47:32.179Z,68.63
2022-12-19T09:50:00.121Z,69.04
2022-12-19T09:52:33.391Z,68.11
2022-12-19T09:55:04.996Z,68.40
2022-12-19T09:57:52.611Z,68.59
2022-12-19T10:00:21.532Z,69.06
2022-12-19T10:03:24.044Z,70.16
2022-12-19T10:06:56.217Z,70.85
2022-12-19T10:08:56.968Z,71.12
2022-12-19T10:12:40.085Z,70.68
2022-12-19T10:14:30.676Z,70.64
2022-12-19T10:17:24.900Z,70.73
2022-12-19T10:20:23.226Z,70.59
2022-12-19T10:23:17.668Z,70.68
2022-12-19T10:25:51.539Z,70.11
2022-12-19T10:28:33.131Z,70.29
2022-12-19T10:31:23.213Z,69.50
2022-12-19T10:34:08.305Z,69.12
2022-12-19T10:37:23.258Z,69.73
2022-12-19T10:39:48.660Z,69.22
2022-12-19T10:42:41.619Z,69.01
2022-12-19T10:45:16.358Z,69.29
2022-12-19T10:47:43.124Z,67.87
2022-12-19T10:50:14.396Z,68.70
2022-12-19T10:52:46.432Z,68.13
2022-12-19T10:55:39.558Z,68.01
2022-12-19T10:58:26.910Z,67.30
2022-12-19T11:00:59.785Z,67.33
2022-12-19T11:03:26.918Z,66.96
2022-12-19T11:05:57.861Z,67.00
2022-12-19T11:08:31.470Z,66.65
2022-12-19T11:14:14.735Z,67.09
2022-12-19T11:19:31.103Z,66.91
2022-12-19T11:19:41.540Z,67.02
2022-12-19T11:29:16.650Z,67.13
2022-12-19T11:30:09.729Z,67.19
2022-12-19T11:30:21.355Z,67.19
2022-12-19T11:30:37.767Z,67.70
2022-12-19T11:34:07.544Z,67.39
2022-12-19T11:36:48.345Z,67.55
2022-12-19T11:39:55.335Z,67.35
2022-12-19T11:42:35.708Z,67.38
2022-12-19T11:45:14.680Z,67.23
2022-12-19T11:47:58.136Z,66.83
2022-12-19T11:50:38.952Z,66.93
2022-12-19T11:53:19.249Z,67.48
2022-12-19T11:56:04.765Z,67.41
2022-12-19T11:58:41.413Z,67.66
2022-12-19T12:01:15.735Z,67.77
2022-12-19T12:04:02.909Z,67.28
2022-12-19T12:06:34.164Z,67.62
2022-12-19T12:13:47.735Z,67.86
2022-12-19T12:17:49.303Z,67.18
2022-12-19T12:27:48.206Z,67.90
2022-12-19T12:31:12.119Z,67.90
2022-12-19T12:31:28.907Z,68.04
2022-12-19T12:31:41.208Z,87.24
2022-12-19T12:31:55.173Z,77.55
2022-12-19T12:35:50.037Z,60.04
2022-12-19T12:41:01.827Z,61.39
2022-12-19T12:43:40.337Z,61.91
2022-12-19T12:46:22.145Z,63.15
2022-12-19T12:48:57.162Z,62.22
2022-12-19T12:51:25.171Z,62.22
2022-12-19T12:53:58.996Z,62.22
2022-12-19T12:56:26.259Z,61.33
2022-12-19T12:58:54.108Z,61.24
2022-12-19T13:01:39.185Z,59.90
2022-12-19T13:04:12.100Z,59.15
2022-12-19T13:06:43.046Z,59.38
2022-12-19T13:09:09.769Z,59.37
2022-12-19T13:12:03.809Z,59.81
2022-12-19T13:14:37.289Z,59.80
2022-12-19T13:17:08.264Z,59.50
2022-12-19T13:19:37.159Z,60.12
2022-12-19T13:22:03.931Z,60.71
2022-12-19T13:24:42.821Z,60.33
2022-12-19T13:27:18.574Z,60.94
2022-12-19T13:30:01.014Z,61.11
2022-12-19T13:32:38.688Z,62.18
2022-12-19T13:36:40.798Z,61.61
2022-12-19T13:39:57.596Z,61.91
2022-12-19T13:41:46.221Z,61.84
2022-12-19T13:44:13.209Z,62.37
2022-12-19T13:46:45.028Z,62.56
2022-12-19T13:49:12.476Z,62.70
2022-12-19T13:51:46.047Z,63.36
2022-12-19T13:54:49.580Z,62.83
2022-12-19T13:57:25.570Z,62.86
2022-12-19T14:00:00.588Z,61.92
2022-12-19T14:02:44.043Z,62.93
2022-12-19T14:06:14.959Z,62.07
2022-12-19T14:08:21.923Z,62.06
2022-12-19T14:11:40.517Z,61.74
2022-12-19T14:14:03.083Z,62.03
2022-12-19T14:16:43.579Z,61.18
2022-12-19T14:19:45.538Z,61.43
2022-12-19T14:22:25.411Z,61.56
2022-12-19T14:25:50.124Z,62.15
2022-12-19T14:28:21.197Z,62.99
2022-12-19T14:30:53.133Z,62.84
2022-12-19T14:33:44.502Z,62.50
2022-12-19T14:36:16.260Z,62.64
2022-12-19T14:39:22.154Z,63.01
2022-12-19T14:42:07.760Z,63.51
2022-12-19T14:53:51.779Z,64.03
2022-12-19T14:54:05.326Z,64.34
2022-12-19T14:54:12.864Z,64.23
2022-12-19T14:54:37.231Z,64.62
2022-12-19T14:56:33.585Z,64.29
2022-12-19T14:59:01.717Z,65.08
2022-12-19T15:01:33.241Z,64.71
2022-12-19T15:04:50.709Z,63.98
2022-12-19T15:07:07.751Z,63.58
2022-12-19T15:11:06.383Z,63.85
2022-12-19T15:14:52.796Z,64.05
2022-12-19T15:16:03.266Z,63.96
2022-12-19T15:18:33.181Z,64.16
2022-12-19T15:21:05.857Z,63.97
2022-12-19T15:23:32.865Z,65.03
2022-12-19T15:26:08.572Z,64.90
2022-12-19T15:28:43.161Z,65.30
2022-12-19T15:31:30.331Z,64.99
2022-12-19T15:34:33.058Z,65.39
2022-12-19T15:36:44.381Z,65.69
2022-12-19T15:39:11.316Z,66.01
2022-12-19T15:41:38.144Z,65.83
2022-12-19T15:44:10.027Z,65.60
2022-12-19T15:46:40.023Z,66.07
2022-12-19T15:49:18.998Z,65.46
2022-12-19T15:51:46.400Z,65.15
2022-12-19T15:57:00.347Z,64.73
2022-12-19T15:59:44.513Z,64.95
2022-12-19T16:02:16.526Z,64.76
2022-12-19T16:04:44.228Z,65.16
2022-12-19T16:07:22.290Z,65.25
2022-12-19T16:09:49.368Z,65.25
2022-12-19T16:12:19.918Z,65.06
2022-12-19T16:14:48.735Z,64.79
2022-12-19T16:17:20.799Z,64.96
2022-12-19T16:19:47.656Z,64.63
2022-12-19T16:22:22.802Z,64.59
2022-12-19T16:24:50.950Z,64.61
2022-12-19T16:27:19.478Z,64.76
2022-12-19T16:29:46.360Z,64.83
2022-12-19T16:32:14.040Z,64.09
2022-12-19T16:34:40.872Z,64.43
2022-12-19T16:37:07.669Z,64.68
2022-12-19T16:39:34.505Z,65.11
2022-12-19T16:42:03.960Z,64.82
2022-12-19T16:44:32.692Z,64.66
2022-12-19T16:46:59.676Z,64.94
2022-12-19T16:49:27.880Z,65.17
2022-12-19T16:51:54.615Z,65.24
2022-12-19T16:54:21.449Z,65.37
2022-12-19T16:56:50.847Z,65.57
2022-12-19T16:59:20.499Z,64.92
2022-12-19T17:01:47.926Z,64.79
2022-12-19T17:04:16.300Z,65.59
2022-12-19T17:06:43.221Z,64.83
2022-12-19T17:09:15.909Z,64.60
2022-12-19T17:11:48.861Z,64.69
2022-12-19T17:14:18.553Z,64.88
2022-12-19T17:16:45.977Z,64.86
2022-12-19T17:19:20.174Z,64.98
2022-12-19T17:21:48.027Z,64.71
2022-12-19T17:24:15.851Z,64.31
2022-12-19T17:26:46.855Z,63.99
2022-12-19T17:29:13.902Z,64.47
2022-12-19T17:31:41.764Z,64.37
2022-12-19T17:34:19.963Z,64.43
2022-12-19T17:36:46.739Z,64.39
2022-12-19T17:39:20.518Z,64.79
2022-12-19T17:41:48.682Z,64.67
2022-12-19T17:44:15.551Z,64.96
2022-12-19T17:46:42.603Z,64.93
2022-12-19T17:49:24.099Z,65.07
2022-12-19T17:51:54.662Z,65.73
2022-12-19T17:54:22.921Z,65.77
2022-12-19T17:56:50.379Z,65.96
2022-12-19T17:59:17.178Z,65.55
2022-12-19T18:01:46.333Z,65.57
2022-12-19T18:04:18.821Z,65.29
2022-12-19T18:06:46.555Z,65.41
2022-12-19T18:09:23.872Z,65.23
2022-12-19T18:11:51.848Z,65.57
2022-12-19T18:14:19.569Z,65.76
2022-12-19T18:16:46.966Z,65.23
2022-12-19T18:19:21.519Z,65.53
2022-12-19T18:21:49.281Z,64.72
2022-12-19T18:24:16.605Z,64.95
2022-12-19T18:26:44.817Z,64.97
2022-12-19T18:29:12.083Z,65.24
2022-12-19T18:31:43.441Z,65.70
2022-12-19T18:34:20.223Z,65.81
2022-12-19T18:36:47.154Z,65.46
2022-12-19T18:39:26.083Z,65.51
2022-12-19T18:41:53.604Z,65.58
2022-12-19T18:44:22.689Z,65.67
2022-12-19T18:46:50.544Z,65.26
2022-12-19T18:49:17.815Z,65.42
2022-12-19T18:51:45.016Z,65.82
2022-12-19T18:54:14.052Z,65.92
2022-12-19T18:56:40.975Z,65.84
2022-12-19T18:59:07.814Z,66.34
2022-12-19T19:01:38.977Z,66.18
2022-12-19T19:04:05.955Z,65.68
2022-12-19T19:06:37.817Z,65.47
2022-12-19T19:09:11.035Z,65.42
2022-12-19T19:11:56.486Z,65.72
2022-12-19T19:14:23.391Z,65.72
2022-12-19T19:16:50.422Z,65.45
2022-12-19T19:19:18.688Z,64.99
2022-12-19T19:21:45.587Z,64.21
2022-12-19T19:24:15.086Z,64.53
2022-12-19T19:26:41.913Z,64.16
2022-12-19T19:29:09.830Z,64.09
2022-12-19T19:31:39.096Z,64.96
2022-12-19T19:34:21.835Z,65.89
2022-12-19T19:36:50.830Z,65.90
2022-12-19T19:39:19.800Z,66.33
2022-12-19T19:41:46.640Z,66.60
2022-12-19T19:44:13.452Z,66.60
2022-12-19T19:46:40.428Z,67.20
2022-12-19T19:49:07.411Z,67.23
2022-12-19T19:51:34.153Z,67.23
2022-12-19T19:54:01.045Z,67.02
2022-12-19T19:56:27.882Z,67.85
2022-12-19T19:58:55.369Z,68.36
2022-12-19T20:01:23.081Z,68.61
2022-12-19T20:03:50.132Z,68.31
2022-12-19T20:06:17.864Z,68.13
2022-12-19T20:08:44.860Z,68.47
2022-12-19T20:11:11.784Z,67.93
2022-12-19T20:13:38.711Z,68.02
2022-12-19T20:16:09.919Z,67.82
2022-12-19T20:18:38.767Z,67.77
2022-12-19T20:21:12.667Z,67.73
2022-12-19T20:23:42.904Z,68.00
2022-12-19T20:26:09.958Z,67.79
2022-12-19T20:28:41.024Z,67.84
2022-12-19T20:31:12.755Z,68.31
2022-12-19T20:33:39.703Z,68.64
2022-12-19T20:36:11.326Z,68.24
2022-12-19T20:38:38.808Z,68.07
2022-12-19T20:41:06.504Z,67.66
2022-12-19T20:43:33.896Z,68.01
2022-12-19T20:46:06.551Z,68.28
2022-12-19T20:48:33.756Z,68.90
2022-12-19T20:51:01.946Z,67.79
2022-12-19T20:53:28.846Z,68.48
2022-12-19T20:55:59.041Z,67.64
2022-12-19T20:58:26.941Z,68.20
2022-12-19T21:00:57.544Z,67.87
2022-12-19T21:03:29.372Z,67.96
2022-12-19T21:05:57.022Z,67.91
2022-12-19T21:08:24.721Z,67.70
2022-12-19T21:10:51.941Z,67.82
2022-12-19T21:13:19.194Z,68.23
2022-12-19T21:15:47.590Z,68.23
2022-12-19T21:18:14.469Z,68.37
2022-12-19T21:20:41.199Z,68.96
2022-12-19T21:23:08.050Z,68.80
2022-12-19T21:25:34.866Z,68.34
2022-12-19T21:28:01.686Z,69.05
2022-12-19T21:30:28.742Z,69.18
2022-12-19T21:32:55.746Z,69.30
2022-12-19T21:35:22.970Z,69.48
2022-12-19T21:37:52.674Z,69.62
2022-12-19T21:40:19.703Z,70.00
2022-12-19T21:42:46.938Z,69.75
2022-12-19T21:45:14.593Z,70.16
2022-12-19T21:47:42.251Z,69.69
2022-12-19T21:50:12.321Z,70.12
2022-12-19T21:52:39.743Z,70.26
2022-12-19T21:55:08.322Z,70.40
2022-12-19T21:57:41.901Z,70.74
2022-12-19T22:00:11.158Z,71.04
2022-12-19T22:02:38.392Z,70.75
2022-12-19T22:05:06.804Z,71.01
2022-12-19T22:07:34.597Z,71.00
2022-12-19T22:10:01.687Z,71.05
2022-12-19T22:12:28.594Z,70.80
2022-12-19T22:14:55.610Z,71.26
2022-12-19T22:17:22.365Z,71.54
2022-12-19T22:19:49.315Z,71.91
2022-12-19T22:22:16.163Z,72.04
2022-12-19T22:24:42.887Z,72.30
2022-12-19T22:27:10.035Z,72.28
2022-12-19T22:29:37.515Z,72.28
2022-12-19T22:32:05.117Z,72.08
2022-12-19T22:34:32.045Z,72.10
2022-12-19T22:36:58.912Z,72.19
2022-12-19T22:39:25.852Z,71.85
2022-12-19T22:41:52.740Z,71.81
2022-12-19T22:44:21.816Z,71.81
2022-12-19T22:46:49.249Z,72.24
2022-12-19T22:49:16.287Z,72.33
2022-12-19T22:51:43.462Z,72.38
2022-12-19T22:54:11.053Z,71.95
2022-12-19T22:56:38.236Z,72.19
2022-12-19T22:59:07.259Z,72.07
2022-12-19T23:01:37.721Z,72.46
2022-12-19T23:04:05.602Z,72.74
2022-12-19T23:06:34.139Z,72.28
2022-12-19T23:09:01.703Z,72.09
2022-12-19T23:11:32.316Z,72.00
2022-12-19T23:14:01.050Z,71.97
2022-12-19T23:16:28.038Z,71.58
2022-12-19T23:18:54.763Z,72.16
2022-12-19T23:21:23.051Z,71.67
2022-12-19T23:23:51.606Z,71.58
2022-12-19T23:26:24.629Z,71.50
2022-12-19T23:28:59.809Z,71.22
2022-12-19T23:31:27.483Z,70.90
2022-12-19T23:33:55.264Z,70.49
2022-12-19T23:36:45.142Z,70.52
2022-12-19T23:39:11.000Z,70.38
2022-12-19T23:41:37.956Z,70.82
2022-12-19T23:44:05.083Z,70.32
2022-12-19T23:46:32.112Z,70.20
2022-12-19T23:48:58.982Z,69.97
2022-12-19T23:51:27.570Z,70.07
2022-12-19T23:53:56.076Z,69.98
2022-12-19T23:56:28.408Z,69.62
2022-12-19T23:58:55.542Z,69.30
